sensor_id;sensor_type;location;lat;lon;timestamp;temperature;humidity
20498;DHT22;10407;53.238;10.448;2023-02-28T00:01:27;-0.10;99.90
20498;DHT22;10407;53.238;10.448;2023-02-28T00:03:55;-0.20;99.90
20498;DHT22;10407;53.238;10.448;2023-02-28T00:06:22;-0.10;99.90
20498;DHT22;10407;53.238;10.448;2023-02-28T00:08:50;-0.20;99.90
20498;DHT22;10407;53.238;10.448;2023-02-28T00:11:18;-0.30;99.90
20498;DHT22;10407;53.238;10.448;2023-02-28T00:13:47;-0.30;99.90
20498;DHT22;10407;53.238;10.448;2023-02-28T00:16:18;-0.20;99.90
20498;DHT22;10407;53.238;10.448;2023-02-28T00:18:46;-0.30;99.90
20498;DHT22;10407;53.238;10.448;2023-02-28T00:21:17;-0.50;99.90
20498;DHT22;10407;53.238;10.448;2023-02-28T00:23:46;-0.40;99.90
20498;DHT22;10407;53.238;10.448;2023-02-28T00:26:13;-0.30;99.90
20498;DHT22;10407;53.238;10.448;2023-02-28T00:28:44;-0.40;99.90
20498;DHT22;10407;53.238;10.448;2023-02-28T00:31:12;-0.40;99.90
20498;DHT22;10407;53.238;10.448;2023-02-28T00:33:39;-0.30;99.90
20498;DHT22;10407;53.238;10.448;2023-02-28T00:36:09;-0.40;99.90
20498;DHT22;10407;53.238;10.448;2023-02-28T00:38:38;-0.40;99.90
20498;DHT22;10407;53.238;10.448;2023-02-28T00:41:07;-0.40;99.90
20498;DHT22;10407;53.238;10.448;2023-02-28T00:43:36;-0.40;99.90
20498;DHT22;10407;53.238;10.448;2023-02-28T00:46:04;-0.40;99.90
20498;DHT22;10407;53.238;10.448;2023-02-28T00:48:33;-0.40;99.90
20498;DHT22;10407;53.238;10.448;2023-02-28T00:51:00;-0.60;99.90
20498;DHT22;10407;53.238;10.448;2023-02-28T00:53:28;-0.60;99.90
20498;DHT22;10407;53.238;10.448;2023-02-28T00:55:56;-0.70;99.90
20498;DHT22;10407;53.238;10.448;2023-02-28T00:58:24;-0.80;99.90
20498;DHT22;10407;53.238;10.448;2023-02-28T01:00:53;-0.80;99.90
20498;DHT22;10407;53.238;10.448;2023-02-28T01:03:21;-0.70;99.90
20498;DHT22;10407;53.238;10.448;2023-02-28T01:05:49;-0.70;99.90
20498;DHT22;10407;53.238;10.448;2023-02-28T01:08:17;-0.60;99.90
20498;DHT22;10407;53.238;10.448;2023-02-28T01:10:45;-0.40;99.90
20498;DHT22;10407;53.238;10.448;2023-02-28T01:13:13;-0.30;99.90
20498;DHT22;10407;53.238;10.448;2023-02-28T01:15:43;-0.20;99.90
20498;DHT22;10407;53.238;10.448;2023-02-28T01:18:11;-0.40;99.90
20498;DHT22;10407;53.238;10.448;2023-02-28T01:20:39;-0.40;99.90
20498;DHT22;10407;53.238;10.448;2023-02-28T01:23:06;-0.30;99.90
20498;DHT22;10407;53.238;10.448;2023-02-28T01:25:37;-0.30;99.90
20498;DHT22;10407;53.238;10.448;2023-02-28T01:28:05;-0.20;99.90
20498;DHT22;10407;53.238;10.448;2023-02-28T01:30:33;-0.30;99.90
20498;DHT22;10407;53.238;10.448;2023-02-28T01:33:00;-0.30;99.90
20498;DHT22;10407;53.238;10.448;2023-02-28T01:35:28;-0.30;99.90
20498;DHT22;10407;53.238;10.448;2023-02-28T01:37:55;-0.30;99.90
20498;DHT22;10407;53.238;10.448;2023-02-28T01:40:23;-0.40;99.90
20498;DHT22;10407;53.238;10.448;2023-02-28T01:42:50;-0.40;99.90
20498;DHT22;10407;53.238;10.448;2023-02-28T01:45:27;-0.40;99.90
20498;DHT22;10407;53.238;10.448;2023-02-28T01:48:00;-0.30;99.90
20498;DHT22;10407;53.238;10.448;2023-02-28T01:50:30;-0.40;99.90
20498;DHT22;10407;53.238;10.448;2023-02-28T01:53:00;-0.40;99.90
20498;DHT22;10407;53.238;10.448;2023-02-28T01:55:29;-0.50;99.90
20498;DHT22;10407;53.238;10.448;2023-02-28T01:58:00;-0.70;99.90
20498;DHT22;10407;53.238;10.448;2023-02-28T02:00:30;-0.60;99.90
20498;DHT22;10407;53.238;10.448;2023-02-28T02:02:59;-0.60;99.90
20498;DHT22;10407;53.238;10.448;2023-02-28T02:05:30;-0.60;99.90
20498;DHT22;10407;53.238;10.448;2023-02-28T02:08:03;-0.70;99.90
20498;DHT22;10407;53.238;10.448;2023-02-28T02:10:34;-0.80;99.90
20498;DHT22;10407;53.238;10.448;2023-02-28T02:18:57;-0.80;99.90
20498;DHT22;10407;53.238;10.448;2023-02-28T02:24:20;-0.90;99.90
20498;DHT22;10407;53.238;10.448;2023-02-28T02:37:56;-0.90;99.90
20498;DHT22;10407;53.238;10.448;2023-02-28T02:40:20;-1.00;99.90
20498;DHT22;10407;53.238;10.448;2023-02-28T02:43:08;-1.10;99.90
20498;DHT22;10407;53.238;10.448;2023-02-28T02:45:43;-1.10;99.90
20498;DHT22;10407;53.238;10.448;2023-02-28T02:48:13;-1.00;99.90
20498;DHT22;10407;53.238;10.448;2023-02-28T02:50:48;-1.00;99.90
20498;DHT22;10407;53.238;10.448;2023-02-28T02:53:17;-0.90;99.90
20498;DHT22;10407;53.238;10.448;2023-02-28T02:55:47;-1.10;99.90
20498;DHT22;10407;53.238;10.448;2023-02-28T02:58:21;-1.10;99.90
20498;DHT22;10407;53.238;10.448;2023-02-28T03:00:53;-1.10;99.90
20498;DHT22;10407;53.238;10.448;2023-02-28T03:03:20;-1.10;99.90
20498;DHT22;10407;53.238;10.448;2023-02-28T03:05:50;-1.10;99.90
20498;DHT22;10407;53.238;10.448;2023-02-28T03:08:18;-1.20;99.90
20498;DHT22;10407;53.238;10.448;2023-02-28T03:11:06;-1.10;99.90
20498;DHT22;10407;53.238;10.448;2023-02-28T03:21:49;-1.20;99.90
20498;DHT22;10407;53.238;10.448;2023-02-28T03:27:30;-1.30;99.90
20498;DHT22;10407;53.238;10.448;2023-02-28T03:30:02;-1.20;99.90
20498;DHT22;10407;53.238;10.448;2023-02-28T03:35:18;-1.20;99.90
20498;DHT22;10407;53.238;10.448;2023-02-28T03:37:54;-1.30;99.90
20498;DHT22;10407;53.238;10.448;2023-02-28T03:40:23;-1.30;99.90
20498;DHT22;10407;53.238;10.448;2023-02-28T03:42:54;-1.40;99.90
20498;DHT22;10407;53.238;10.448;2023-02-28T03:45:26;-1.20;99.90
20498;DHT22;10407;53.238;10.448;2023-02-28T03:47:57;-1.30;99.90
20498;DHT22;10407;53.238;10.448;2023-02-28T03:50:27;-1.30;99.90
20498;DHT22;10407;53.238;10.448;2023-02-28T03:55:45;-1.40;99.90
20498;DHT22;10407;53.238;10.448;2023-02-28T03:58:20;-1.50;99.90
20498;DHT22;10407;53.238;10.448;2023-02-28T04:00:47;-1.60;99.90
20498;DHT22;10407;53.238;10.448;2023-02-28T04:03:15;-1.50;99.90
20498;DHT22;10407;53.238;10.448;2023-02-28T04:05:55;-1.40;99.90
20498;DHT22;10407;53.238;10.448;2023-02-28T04:08:24;-1.60;99.90
20498;DHT22;10407;53.238;10.448;2023-02-28T04:10:57;-1.40;99.90
20498;DHT22;10407;53.238;10.448;2023-02-28T04:13:41;-1.40;99.90
20498;DHT22;10407;53.238;10.448;2023-02-28T04:16:10;-1.50;99.90
20498;DHT22;10407;53.238;10.448;2023-02-28T04:18:39;-1.50;99.90
20498;DHT22;10407;53.238;10.448;2023-02-28T04:21:07;-1.50;99.90
20498;DHT22;10407;53.238;10.448;2023-02-28T04:23:34;-1.40;99.90
20498;DHT22;10407;53.238;10.448;2023-02-28T04:26:02;-1.40;99.90
20498;DHT22;10407;53.238;10.448;2023-02-28T04:28:30;-1.40;99.90
20498;DHT22;10407;53.238;10.448;2023-02-28T04:31:00;-1.40;99.90
20498;DHT22;10407;53.238;10.448;2023-02-28T04:33:28;-1.40;99.90
20498;DHT22;10407;53.238;10.448;2023-02-28T04:36:18;-1.50;99.90
20498;DHT22;10407;53.238;10.448;2023-02-28T04:38:46;-1.60;99.90
20498;DHT22;10407;53.238;10.448;2023-02-28T04:41:13;-1.70;99.90
20498;DHT22;10407;53.238;10.448;2023-02-28T04:43:41;-1.60;99.90
20498;DHT22;10407;53.238;10.448;2023-02-28T04:46:09;-1.60;99.90
20498;DHT22;10407;53.238;10.448;2023-02-28T04:48:38;-1.50;99.90
20498;DHT22;10407;53.238;10.448;2023-02-28T04:51:09;-1.40;99.90
20498;DHT22;10407;53.238;10.448;2023-02-28T04:53:38;-1.40;99.90
20498;DHT22;10407;53.238;10.448;2023-02-28T04:56:07;-1.50;99.90
20498;DHT22;10407;53.238;10.448;2023-02-28T04:58:35;-1.60;99.90
20498;DHT22;10407;53.238;10.448;2023-02-28T05:01:05;-1.70;99.90
20498;DHT22;10407;53.238;10.448;2023-02-28T05:03:41;-1.60;99.90
20498;DHT22;10407;53.238;10.448;2023-02-28T05:06:09;-1.70;99.90
20498;DHT22;10407;53.238;10.448;2023-02-28T05:08:37;-1.60;99.90
20498;DHT22;10407;53.238;10.448;2023-02-28T05:11:09;-1.70;99.90
20498;DHT22;10407;53.238;10.448;2023-02-28T05:13:36;-1.80;99.90
20498;DHT22;10407;53.238;10.448;2023-02-28T05:16:03;-1.90;99.90
20498;DHT22;10407;53.238;10.448;2023-02-28T05:18:31;-1.80;99.90
20498;DHT22;10407;53.238;10.448;2023-02-28T05:21:00;-1.80;99.90
20498;DHT22;10407;53.238;10.448;2023-02-28T05:23:30;-1.80;99.90
20498;DHT22;10407;53.238;10.448;2023-02-28T05:25:58;-1.70;99.90
20498;DHT22;10407;53.238;10.448;2023-02-28T05:28:25;-1.70;99.90
20498;DHT22;10407;53.238;10.448;2023-02-28T05:30:52;-1.80;99.90
20498;DHT22;10407;53.238;10.448;2023-02-28T05:33:20;-1.80;99.90
20498;DHT22;10407;53.238;10.448;2023-02-28T05:35:47;-1.80;99.90
20498;DHT22;10407;53.238;10.448;2023-02-28T05:38:15;-1.90;99.90
20498;DHT22;10407;53.238;10.448;2023-02-28T05:40:43;-1.90;99.90
20498;DHT22;10407;53.238;10.448;2023-02-28T05:43:11;-1.90;99.90
20498;DHT22;10407;53.238;10.448;2023-02-28T05:45:39;-2.00;99.90
20498;DHT22;10407;53.238;10.448;2023-02-28T05:48:07;-1.90;99.90
20498;DHT22;10407;53.238;10.448;2023-02-28T05:50:34;-2.00;99.90
20498;DHT22;10407;53.238;10.448;2023-02-28T05:53:02;-2.10;99.90
20498;DHT22;10407;53.238;10.448;2023-02-28T05:55:30;-1.90;99.90
20498;DHT22;10407;53.238;10.448;2023-02-28T05:57:58;-1.90;99.90
20498;DHT22;10407;53.238;10.448;2023-02-28T06:00:25;-2.00;99.90
20498;DHT22;10407;53.238;10.448;2023-02-28T06:02:53;-2.10;99.90
20498;DHT22;10407;53.238;10.448;2023-02-28T06:05:22;-2.10;99.90
20498;DHT22;10407;53.238;10.448;2023-02-28T06:07:49;-2.10;99.90
20498;DHT22;10407;53.238;10.448;2023-02-28T06:10:17;-2.10;99.90
20498;DHT22;10407;53.238;10.448;2023-02-28T06:12:46;-2.00;99.90
20498;DHT22;10407;53.238;10.448;2023-02-28T06:15:14;-2.00;99.90
20498;DHT22;10407;53.238;10.448;2023-02-28T06:17:43;-1.90;99.90
20498;DHT22;10407;53.238;10.448;2023-02-28T06:20:12;-1.80;99.90
20498;DHT22;10407;53.238;10.448;2023-02-28T06:22:40;-1.80;99.90
20498;DHT22;10407;53.238;10.448;2023-02-28T06:25:08;-1.80;99.90
20498;DHT22;10407;53.238;10.448;2023-02-28T06:27:37;-1.80;99.90
20498;DHT22;10407;53.238;10.448;2023-02-28T06:30:05;-1.70;99.90
20498;DHT22;10407;53.238;10.448;2023-02-28T06:32:33;-1.80;99.90
20498;DHT22;10407;53.238;10.448;2023-02-28T06:35:00;-1.80;99.90
20498;DHT22;10407;53.238;10.448;2023-02-28T06:37:28;-1.80;99.90
20498;DHT22;10407;53.238;10.448;2023-02-28T06:39:55;-1.70;99.90
20498;DHT22;10407;53.238;10.448;2023-02-28T06:42:24;-1.60;99.90
20498;DHT22;10407;53.238;10.448;2023-02-28T06:44:58;-1.70;99.90
20498;DHT22;10407;53.238;10.448;2023-02-28T06:47:23;-1.60;99.90
20498;DHT22;10407;53.238;10.448;2023-02-28T06:49:51;-1.60;99.90
20498;DHT22;10407;53.238;10.448;2023-02-28T06:52:18;-1.30;99.90
20498;DHT22;10407;53.238;10.448;2023-02-28T06:54:46;-1.00;99.90
20498;DHT22;10407;53.238;10.448;2023-02-28T06:57:13;-0.70;99.90
20498;DHT22;10407;53.238;10.448;2023-02-28T06:59:41;-0.70;99.90
20498;DHT22;10407;53.238;10.448;2023-02-28T07:02:08;-0.50;99.90
20498;DHT22;10407;53.238;10.448;2023-02-28T07:04:36;0.20;99.90
20498;DHT22;10407;53.238;10.448;2023-02-28T07:07:05;0.50;99.90
20498;DHT22;10407;53.238;10.448;2023-02-28T07:09:52;1.00;99.90
20498;DHT22;10407;53.238;10.448;2023-02-28T07:12:19;1.10;99.90
20498;DHT22;10407;53.238;10.448;2023-02-28T07:14:48;1.40;99.90
20498;DHT22;10407;53.238;10.448;2023-02-28T07:17:15;1.60;99.90
20498;DHT22;10407;53.238;10.448;2023-02-28T07:19:42;1.80;99.90
20498;DHT22;10407;53.238;10.448;2023-02-28T07:22:10;2.10;99.90
20498;DHT22;10407;53.238;10.448;2023-02-28T07:24:37;2.40;99.90
20498;DHT22;10407;53.238;10.448;2023-02-28T07:27:05;2.40;99.90
20498;DHT22;10407;53.238;10.448;2023-02-28T07:29:33;2.40;99.90
20498;DHT22;10407;53.238;10.448;2023-02-28T07:32:00;2.40;99.90
20498;DHT22;10407;53.238;10.448;2023-02-28T07:34:27;2.60;99.90
20498;DHT22;10407;53.238;10.448;2023-02-28T07:36:55;2.90;99.90
20498;DHT22;10407;53.238;10.448;2023-02-28T07:39:23;3.30;99.90
20498;DHT22;10407;53.238;10.448;2023-02-28T07:41:50;3.80;99.90
20498;DHT22;10407;53.238;10.448;2023-02-28T07:44:18;3.70;99.90
20498;DHT22;10407;53.238;10.448;2023-02-28T07:46:45;3.60;99.90
20498;DHT22;10407;53.238;10.448;2023-02-28T07:49:13;4.00;99.90
20498;DHT22;10407;53.238;10.448;2023-02-28T07:51:41;3.90;99.90
20498;DHT22;10407;53.238;10.448;2023-02-28T07:54:08;4.30;99.90
20498;DHT22;10407;53.238;10.448;2023-02-28T07:56:36;4.70;99.90
20498;DHT22;10407;53.238;10.448;2023-02-28T07:59:03;4.70;99.90
20498;DHT22;10407;53.238;10.448;2023-02-28T08:01:31;4.80;99.90
20498;DHT22;10407;53.238;10.448;2023-02-28T08:03:58;4.50;99.90
20498;DHT22;10407;53.238;10.448;2023-02-28T08:06:26;4.90;99.90
20498;DHT22;10407;53.238;10.448;2023-02-28T08:08:54;5.10;99.90
20498;DHT22;10407;53.238;10.448;2023-02-28T08:11:22;4.90;99.90
20498;DHT22;10407;53.238;10.448;2023-02-28T08:13:50;5.30;99.90
20498;DHT22;10407;53.238;10.448;2023-02-28T08:16:18;5.40;99.90
20498;DHT22;10407;53.238;10.448;2023-02-28T08:18:48;5.90;99.90
20498;DHT22;10407;53.238;10.448;2023-02-28T08:21:16;6.00;99.90
20498;DHT22;10407;53.238;10.448;2023-02-28T08:23:46;5.70;99.90
20498;DHT22;10407;53.238;10.448;2023-02-28T08:26:14;5.60;99.90
20498;DHT22;10407;53.238;10.448;2023-02-28T08:28:41;6.10;99.90
20498;DHT22;10407;53.238;10.448;2023-02-28T08:31:10;6.00;99.90
20498;DHT22;10407;53.238;10.448;2023-02-28T08:33:40;6.50;99.90
20498;DHT22;10407;53.238;10.448;2023-02-28T08:36:08;6.70;99.90
20498;DHT22;10407;53.238;10.448;2023-02-28T08:38:37;6.70;99.90
20498;DHT22;10407;53.238;10.448;2023-02-28T08:41:07;7.00;99.90
20498;DHT22;10407;53.238;10.448;2023-02-28T08:43:36;7.20;99.90
20498;DHT22;10407;53.238;10.448;2023-02-28T08:46:04;7.00;99.90
20498;DHT22;10407;53.238;10.448;2023-02-28T08:48:33;7.10;99.90
20498;DHT22;10407;53.238;10.448;2023-02-28T08:51:06;7.30;99.90
20498;DHT22;10407;53.238;10.448;2023-02-28T08:53:39;7.30;99.90
20498;DHT22;10407;53.238;10.448;2023-02-28T08:56:12;7.30;99.90
20498;DHT22;10407;53.238;10.448;2023-02-28T08:58:40;7.10;99.90
20498;DHT22;10407;53.238;10.448;2023-02-28T09:01:19;7.30;99.90
20498;DHT22;10407;53.238;10.448;2023-02-28T09:03:48;7.60;99.90
20498;DHT22;10407;53.238;10.448;2023-02-28T09:06:17;7.70;99.90
20498;DHT22;10407;53.238;10.448;2023-02-28T09:08:45;7.50;99.90
20498;DHT22;10407;53.238;10.448;2023-02-28T09:11:13;7.80;99.90
20498;DHT22;10407;53.238;10.448;2023-02-28T09:13:41;7.50;99.90
20498;DHT22;10407;53.238;10.448;2023-02-28T09:16:11;7.90;99.90
20498;DHT22;10407;53.238;10.448;2023-02-28T09:18:40;8.00;99.90
20498;DHT22;10407;53.238;10.448;2023-02-28T09:21:11;8.30;99.90
20498;DHT22;10407;53.238;10.448;2023-02-28T09:23:42;8.40;99.90
20498;DHT22;10407;53.238;10.448;2023-02-28T09:26:29;8.50;99.90
20498;DHT22;10407;53.238;10.448;2023-02-28T09:28:43;8.60;99.90
20498;DHT22;10407;53.238;10.448;2023-02-28T09:31:13;8.70;99.90
20498;DHT22;10407;53.238;10.448;2023-02-28T09:33:41;9.10;99.90
20498;DHT22;10407;53.238;10.448;2023-02-28T09:36:09;9.20;99.90
20498;DHT22;10407;53.238;10.448;2023-02-28T09:38:36;9.30;99.90
20498;DHT22;10407;53.238;10.448;2023-02-28T09:41:22;9.40;99.90
20498;DHT22;10407;53.238;10.448;2023-02-28T09:43:55;9.50;99.40
20498;DHT22;10407;53.238;10.448;2023-02-28T09:49:12;9.70;97.70
20498;DHT22;10407;53.238;10.448;2023-02-28T09:54:24;9.70;95.10
20498;DHT22;10407;53.238;10.448;2023-02-28T09:56:55;9.50;92.30
20498;DHT22;10407;53.238;10.448;2023-02-28T10:05:43;9.50;85.70
20498;DHT22;10407;53.238;10.448;2023-02-28T10:09:14;9.50;83.70
20498;DHT22;10407;53.238;10.448;2023-02-28T10:11:00;9.30;76.00
20498;DHT22;10407;53.238;10.448;2023-02-28T10:13:45;9.40;80.20
20498;DHT22;10407;53.238;10.448;2023-02-28T10:16:40;8.80;66.80
20498;DHT22;10407;53.238;10.448;2023-02-28T10:19:17;8.00;71.00
20498;DHT22;10407;53.238;10.448;2023-02-28T10:21:55;8.20;70.00
20498;DHT22;10407;53.238;10.448;2023-02-28T10:26:53;8.70;71.60
20498;DHT22;10407;53.238;10.448;2023-02-28T10:29:22;9.30;70.00
20498;DHT22;10407;53.238;10.448;2023-02-28T10:31:49;9.40;72.60
20498;DHT22;10407;53.238;10.448;2023-02-28T10:34:17;9.40;72.10
20498;DHT22;10407;53.238;10.448;2023-02-28T10:36:44;9.50;70.40
20498;DHT22;10407;53.238;10.448;2023-02-28T10:39:34;9.30;68.80
20498;DHT22;10407;53.238;10.448;2023-02-28T10:42:03;9.20;68.50
20498;DHT22;10407;53.238;10.448;2023-02-28T10:44:31;9.10;66.90
20498;DHT22;10407;53.238;10.448;2023-02-28T10:46:58;8.90;65.30
20498;DHT22;10407;53.238;10.448;2023-02-28T10:49:27;9.00;67.70
20498;DHT22;10407;53.238;10.448;2023-02-28T10:51:58;9.30;69.90
20498;DHT22;10407;53.238;10.448;2023-02-28T10:54:34;9.00;71.70
20498;DHT22;10407;53.238;10.448;2023-02-28T10:57:08;9.40;74.00
20498;DHT22;10407;53.238;10.448;2023-02-28T10:59:36;9.20;62.30
20498;DHT22;10407;53.238;10.448;2023-02-28T11:02:28;8.40;64.50
20498;DHT22;10407;53.238;10.448;2023-02-28T11:04:37;8.20;65.20
20498;DHT22;10407;53.238;10.448;2023-02-28T11:09:40;8.20;58.30
20498;DHT22;10407;53.238;10.448;2023-02-28T11:12:37;8.50;57.30
20498;DHT22;10407;53.238;10.448;2023-02-28T11:15:22;8.10;57.00
20498;DHT22;10407;53.238;10.448;2023-02-28T11:18:17;8.30;57.20
20498;DHT22;10407;53.238;10.448;2023-02-28T11:20:33;8.00;59.90
20498;DHT22;10407;53.238;10.448;2023-02-28T11:23:03;8.20;59.00
20498;DHT22;10407;53.238;10.448;2023-02-28T11:25:36;8.50;58.20
20498;DHT22;10407;53.238;10.448;2023-02-28T11:28:06;8.60;58.40
20498;DHT22;10407;53.238;10.448;2023-02-28T11:30:37;7.60;56.90
20498;DHT22;10407;53.238;10.448;2023-02-28T11:33:23;7.90;58.20
20498;DHT22;10407;53.238;10.448;2023-02-28T11:35:51;8.30;59.20
20498;DHT22;10407;53.238;10.448;2023-02-28T11:38:19;8.20;54.70
20498;DHT22;10407;53.238;10.448;2023-02-28T11:43:48;8.20;53.20
20498;DHT22;10407;53.238;10.448;2023-02-28T11:49:05;8.30;55.30
20498;DHT22;10407;53.238;10.448;2023-02-28T11:51:40;8.30;55.70
20498;DHT22;10407;53.238;10.448;2023-02-28T11:56:52;8.60;56.50
20498;DHT22;10407;53.238;10.448;2023-02-28T11:59:48;8.60;56.80
20498;DHT22;10407;53.238;10.448;2023-02-28T12:02:23;8.60;56.80
20498;DHT22;10407;53.238;10.448;2023-02-28T12:21:04;7.80;57.30
20498;DHT22;10407;53.238;10.448;2023-02-28T12:23:52;7.60;58.20
20498;DHT22;10407;53.238;10.448;2023-02-28T12:29:17;7.70;58.80
20498;DHT22;10407;53.238;10.448;2023-02-28T12:32:30;7.80;57.80
20498;DHT22;10407;53.238;10.448;2023-02-28T12:34:26;8.00;58.10
20498;DHT22;10407;53.238;10.448;2023-02-28T12:36:50;7.60;56.30
20498;DHT22;10407;53.238;10.448;2023-02-28T12:39:34;6.90;56.70
20498;DHT22;10407;53.238;10.448;2023-02-28T12:42:08;7.30;57.30
20498;DHT22;10407;53.238;10.448;2023-02-28T12:44:40;7.60;56.50
20498;DHT22;10407;53.238;10.448;2023-02-28T12:47:12;7.70;54.40
20498;DHT22;10407;53.238;10.448;2023-02-28T12:49:50;7.40;55.40
20498;DHT22;10407;53.238;10.448;2023-02-28T12:52:22;7.20;57.60
20498;DHT22;10407;53.238;10.448;2023-02-28T12:54:54;7.20;58.00
20498;DHT22;10407;53.238;10.448;2023-02-28T13:00:03;8.00;58.90
20498;DHT22;10407;53.238;10.448;2023-02-28T13:02:55;8.10;56.70
20498;DHT22;10407;53.238;10.448;2023-02-28T13:05:39;8.10;57.10
20498;DHT22;10407;53.238;10.448;2023-02-28T13:08:37;7.90;58.40
20498;DHT22;10407;53.238;10.448;2023-02-28T13:11:02;7.00;59.80
20498;DHT22;10407;53.238;10.448;2023-02-28T13:13:31;6.50;64.80
20498;DHT22;10407;53.238;10.448;2023-02-28T13:16:04;6.20;67.10
20498;DHT22;10407;53.238;10.448;2023-02-28T13:18:43;6.60;70.30
20498;DHT22;10407;53.238;10.448;2023-02-28T13:21:29;6.90;66.30
20498;DHT22;10407;53.238;10.448;2023-02-28T13:23:59;7.20;66.80
20498;DHT22;10407;53.238;10.448;2023-02-28T13:34:47;6.80;67.20
20498;DHT22;10407;53.238;10.448;2023-02-28T13:39:59;6.90;69.30
20498;DHT22;10407;53.238;10.448;2023-02-28T13:42:35;6.60;69.70
20498;DHT22;10407;53.238;10.448;2023-02-28T13:47:51;6.40;72.30
20498;DHT22;10407;53.238;10.448;2023-02-28T13:50:29;7.00;70.80
20498;DHT22;10407;53.238;10.448;2023-02-28T14:01:24;7.20;70.10
20498;DHT22;10407;53.238;10.448;2023-02-28T14:04:12;7.00;70.60
20498;DHT22;10407;53.238;10.448;2023-02-28T14:06:39;7.00;68.80
20498;DHT22;10407;53.238;10.448;2023-02-28T14:09:25;7.10;70.40
20498;DHT22;10407;53.238;10.448;2023-02-28T14:11:54;6.40;70.20
20498;DHT22;10407;53.238;10.448;2023-02-28T14:17:06;6.90;69.40
20498;DHT22;10407;53.238;10.448;2023-02-28T14:19:37;6.80;71.00
20498;DHT22;10407;53.238;10.448;2023-02-28T14:25:00;6.70;71.20
20498;DHT22;10407;53.238;10.448;2023-02-28T14:27:28;7.00;70.20
20498;DHT22;10407;53.238;10.448;2023-02-28T14:32:33;6.80;69.00
20498;DHT22;10407;53.238;10.448;2023-02-28T14:37:54;6.30;69.40
20498;DHT22;10407;53.238;10.448;2023-02-28T14:40:30;6.60;68.80
20498;DHT22;10407;53.238;10.448;2023-02-28T14:43:03;6.60;66.70
20498;DHT22;10407;53.238;10.448;2023-02-28T14:45:34;6.60;68.50
20498;DHT22;10407;53.238;10.448;2023-02-28T14:48:05;6.80;68.80
20498;DHT22;10407;53.238;10.448;2023-02-28T14:50:36;6.70;67.10
20498;DHT22;10407;53.238;10.448;2023-02-28T14:53:06;6.60;67.90
20498;DHT22;10407;53.238;10.448;2023-02-28T14:55:35;6.80;66.70
20498;DHT22;10407;53.238;10.448;2023-02-28T14:58:05;7.00;67.40
20498;DHT22;10407;53.238;10.448;2023-02-28T15:00:35;7.00;64.80
20498;DHT22;10407;53.238;10.448;2023-02-28T15:03:30;6.50;67.00
20498;DHT22;10407;53.238;10.448;2023-02-28T15:05:54;6.20;68.00
20498;DHT22;10407;53.238;10.448;2023-02-28T15:08:22;6.40;70.60
20498;DHT22;10407;53.238;10.448;2023-02-28T15:10:58;6.40;68.60
20498;DHT22;10407;53.238;10.448;2023-02-28T15:13:36;6.40;70.70
20498;DHT22;10407;53.238;10.448;2023-02-28T15:16:06;6.10;68.30
20498;DHT22;10407;53.238;10.448;2023-02-28T15:21:15;6.30;69.60
20498;DHT22;10407;53.238;10.448;2023-02-28T15:23:50;6.60;67.90
20498;DHT22;10407;53.238;10.448;2023-02-28T15:26:16;6.30;65.00
20498;DHT22;10407;53.238;10.448;2023-02-28T15:28:45;6.40;67.20
20498;DHT22;10407;53.238;10.448;2023-02-28T15:31:28;6.40;66.10
20498;DHT22;10407;53.238;10.448;2023-02-28T15:33:58;6.20;64.20
20498;DHT22;10407;53.238;10.448;2023-02-28T15:36:29;6.00;61.30
20498;DHT22;10407;53.238;10.448;2023-02-28T15:38:56;6.40;62.20
20498;DHT22;10407;53.238;10.448;2023-02-28T15:41:36;6.30;60.60
20498;DHT22;10407;53.238;10.448;2023-02-28T15:46:59;6.30;61.90
20498;DHT22;10407;53.238;10.448;2023-02-28T15:49:23;6.60;62.00
20498;DHT22;10407;53.238;10.448;2023-02-28T15:51:52;6.40;59.70
20498;DHT22;10407;53.238;10.448;2023-02-28T15:54:29;6.10;58.30
20498;DHT22;10407;53.238;10.448;2023-02-28T15:57:01;6.00;59.00
20498;DHT22;10407;53.238;10.448;2023-02-28T15:59:29;6.00;59.70
20498;DHT22;10407;53.238;10.448;2023-02-28T16:02:13;6.10;60.30
20498;DHT22;10407;53.238;10.448;2023-02-28T16:07:40;6.00;62.30
20498;DHT22;10407;53.238;10.448;2023-02-28T16:10:10;5.90;59.10
20498;DHT22;10407;53.238;10.448;2023-02-28T16:12:39;5.90;63.70
20498;DHT22;10407;53.238;10.448;2023-02-28T16:15:15;5.80;65.00
20498;DHT22;10407;53.238;10.448;2023-02-28T16:17:39;6.10;64.10
20498;DHT22;10407;53.238;10.448;2023-02-28T16:20:14;6.10;65.10
20498;DHT22;10407;53.238;10.448;2023-02-28T16:22:43;6.10;62.70
20498;DHT22;10407;53.238;10.448;2023-02-28T16:25:16;6.10;65.30
20498;DHT22;10407;53.238;10.448;2023-02-28T16:27:47;5.90;66.80
20498;DHT22;10407;53.238;10.448;2023-02-28T16:30:24;5.80;68.40
20498;DHT22;10407;53.238;10.448;2023-02-28T16:32:52;5.80;70.00
20498;DHT22;10407;53.238;10.448;2023-02-28T16:35:20;5.70;68.60
20498;DHT22;10407;53.238;10.448;2023-02-28T16:37:50;5.60;77.50
20498;DHT22;10407;53.238;10.448;2023-02-28T16:40:23;5.60;79.30
20498;DHT22;10407;53.238;10.448;2023-02-28T16:42:53;5.50;80.40
20498;DHT22;10407;53.238;10.448;2023-02-28T16:45:24;5.40;83.60
20498;DHT22;10407;53.238;10.448;2023-02-28T16:47:52;5.40;87.60
20498;DHT22;10407;53.238;10.448;2023-02-28T16:50:26;5.30;90.70
20498;DHT22;10407;53.238;10.448;2023-02-28T16:52:54;5.20;90.90
20498;DHT22;10407;53.238;10.448;2023-02-28T16:55:23;5.00;91.70
20498;DHT22;10407;53.238;10.448;2023-02-28T16:57:53;5.00;91.90
20498;DHT22;10407;53.238;10.448;2023-02-28T17:00:21;4.90;92.20
20498;DHT22;10407;53.238;10.448;2023-02-28T17:02:49;4.90;93.50
20498;DHT22;10407;53.238;10.448;2023-02-28T17:05:17;4.80;95.10
20498;DHT22;10407;53.238;10.448;2023-02-28T17:07:46;4.70;96.20
20498;DHT22;10407;53.238;10.448;2023-02-28T17:10:23;4.60;97.30
20498;DHT22;10407;53.238;10.448;2023-02-28T17:12:50;4.60;97.30
20498;DHT22;10407;53.238;10.448;2023-02-28T17:15:19;4.40;98.50
20498;DHT22;10407;53.238;10.448;2023-02-28T17:17:48;4.40;99.20
20498;DHT22;10407;53.238;10.448;2023-02-28T17:20:18;4.20;98.20
20498;DHT22;10407;53.238;10.448;2023-02-28T17:22:49;4.20;97.70
20498;DHT22;10407;53.238;10.448;2023-02-28T17:25:17;4.10;97.40
20498;DHT22;10407;53.238;10.448;2023-02-28T17:27:44;4.10;98.90
20498;DHT22;10407;53.238;10.448;2023-02-28T17:32:49;3.90;99.50
20498;DHT22;10407;53.238;10.448;2023-02-28T17:35:16;3.60;99.90
20498;DHT22;10407;53.238;10.448;2023-02-28T17:37:44;3.60;99.90
20498;DHT22;10407;53.238;10.448;2023-02-28T17:40:19;3.50;99.90
20498;DHT22;10407;53.238;10.448;2023-02-28T17:42:43;3.40;99.90
20498;DHT22;10407;53.238;10.448;2023-02-28T17:45:12;3.40;99.90
20498;DHT22;10407;53.238;10.448;2023-02-28T17:47:41;3.30;99.90
20498;DHT22;10407;53.238;10.448;2023-02-28T17:50:16;3.30;99.90
20498;DHT22;10407;53.238;10.448;2023-02-28T17:52:44;3.40;99.90
20498;DHT22;10407;53.238;10.448;2023-02-28T17:55:12;3.20;99.90